Time;durP1;ratioP1;P1;durP2;ratioP2;P2;SDS_P1;SDS_P2;PMS_P1;PMS_P2;Temp;Humidity;BMP_temperature;BMP_pressure;BME280_temperature;BME280_humidity;BME280_pressure;Samples;Min_cycle;Max_cycle;Signal;HPM_P1;HPM_P2
2023/04/01 00:01:03;;;;;;;2.00;0.70;;;;;;;9.09;100.00;98776.53;4937914;29;20655;-78
2023/04/01 00:03:30;;;;;;;1.17;0.77;;;;;;;9.09;100.00;98775.69;4937945;29;20122;-79
2023/04/01 00:05:59;;;;;;;2.17;1.38;;;;;;;9.10;100.00;98778.25;4955490;28;20054;-78
2023/04/01 00:08:28;;;;;;;3.10;1.50;;;;;;;9.11;100.00;98776.47;4923458;29;20063;-78
2023/04/01 00:10:56;;;;;;;4.50;0.55;;;;;;;9.16;100.00;98776.34;4955634;29;20042;-79
2023/04/01 00:13:25;;;;;;;1.70;0.75;;;;;;;9.17;100.00;98775.44;4938658;29;20129;-82
2023/04/01 00:15:52;;;;;;;2.17;0.60;;;;;;;9.19;100.00;98778.81;4938798;29;20122;-83
2023/04/01 00:18:18;;;;;;;3.42;0.57;;;;;;;9.20;100.00;98781.38;4919572;29;20052;-79
2023/04/01 00:20:47;;;;;;;2.10;0.82;;;;;;;9.21;100.00;98774.41;4925274;29;20055;-79
2023/04/01 00:23:14;;;;;;;1.48;0.50;;;;;;;9.22;100.00;98782.19;4939461;29;20054;-78
2023/04/01 00:25:40;;;;;;;1.65;0.73;;;;;;;9.22;100.00;98781.34;4943303;29;20031;-79
2023/04/01 00:28:07;;;;;;;2.65;0.90;;;;;;;9.22;100.00;98776.97;4948467;29;20039;-79
2023/04/01 00:30:33;;;;;;;0.93;0.50;;;;;;;9.20;100.00;98777.94;4944305;29;20035;-82
2023/04/01 00:33:00;;;;;;;3.65;1.00;;;;;;;9.19;100.00;98781.44;4940518;29;20394;-79
2023/04/01 00:35:26;;;;;;;2.88;0.75;;;;;;;9.16;100.00;98777.16;4945980;29;20074;-81
2023/04/01 00:37:53;;;;;;;2.55;0.57;;;;;;;9.15;100.00;98772.88;4954007;28;20559;-81
2023/04/01 00:40:34;;;;;;;1.85;0.57;;;;;;;9.13;100.00;98779.06;4920773;29;20467;-78
2023/04/01 00:43:00;;;;;;;2.38;0.70;;;;;;;9.10;100.00;98780.00;4922156;29;20577;-79
2023/04/01 00:45:43;;;;;;;1.80;0.90;;;;;;;9.07;100.00;98774.88;4934836;29;20403;-79
2023/04/01 00:48:21;;;;;;;2.95;0.75;;;;;;;9.04;100.00;98783.66;4935090;29;20055;-79
2023/04/01 00:50:57;;;;;;;1.50;0.45;;;;;;;9.01;100.00;98773.31;4953792;29;20484;-78
2023/04/01 00:53:27;;;;;;;1.13;0.50;;;;;;;8.99;100.00;98776.88;4937140;29;20043;-79
2023/04/01 00:56:18;;;;;;;2.08;0.45;;;;;;;8.97;100.00;98774.34;4956091;28;20050;-78
2023/04/01 00:58:50;;;;;;;1.17;0.60;;;;;;;8.94;100.00;98774.41;4947423;29;20051;-78
2023/04/01 01:01:16;;;;;;;1.50;0.52;;;;;;;8.94;100.00;98782.25;4954146;28;20482;-85
2023/04/01 01:03:43;;;;;;;2.55;1.25;;;;;;;8.95;100.00;98789.19;4933016;29;20040;-80
2023/04/01 01:06:23;;;;;;;3.22;0.85;;;;;;;8.94;100.00;98788.34;4946861;29;20042;-78
2023/04/01 01:09:03;;;;;;;2.35;0.47;;;;;;;8.93;100.00;98784.00;4940382;29;20058;-78
2023/04/01 01:11:42;;;;;;;6.30;0.65;;;;;;;8.93;100.00;98788.38;4936927;29;20062;-78
2023/04/01 01:14:55;;;;;;;0.47;0.22;;;;;;;8.91;100.00;98782.34;4934638;29;20043;-82
2023/04/01 01:17:54;;;;;;;1.80;0.30;;;;;;;8.88;100.00;98785.91;4920920;29;20051;-78
2023/04/01 01:20:58;;;;;;;2.92;0.40;;;;;;;8.85;100.00;98786.03;4938053;29;20059;-78
2023/04/01 01:24:08;;;;;;;2.65;0.20;;;;;;;8.79;100.00;98783.59;4938029;29;20055;-78
2023/04/01 01:27:03;;;;;;;1.75;0.28;;;;;;;8.75;100.00;98779.38;4954344;29;20094;-79
2023/04/01 01:29:52;;;;;;;1.33;0.30;;;;;;;8.74;100.00;98780.28;4943412;29;20102;-79
2023/04/01 01:32:53;;;;;;;1.75;0.30;;;;;;;8.73;100.00;98779.41;4937343;29;20051;-79
2023/04/01 01:35:48;;;;;;;1.77;0.22;;;;;;;8.73;100.00;98784.63;4935815;29;20091;-78
2023/04/01 01:38:18;;;;;;;1.10;0.63;;;;;;;8.72;100.00;98782.06;4935277;29;20403;-78
2023/04/01 01:40:53;;;;;;;0.77;0.30;;;;;;;8.72;100.00;98782.94;4936724;29;20418;-81
2023/04/01 01:43:25;;;;;;;0.82;0.32;;;;;;;8.74;100.00;98769.84;4937368;29;20121;-78
2023/04/01 01:45:56;;;;;;;1.50;0.20;;;;;;;8.73;100.00;98784.63;4925895;29;20040;-78
2023/04/01 01:48:25;;;;;;;2.30;0.60;;;;;;;8.74;100.00;98775.06;4946783;29;20126;-77
2023/04/01 01:50:53;;;;;;;1.05;0.60;;;;;;;8.74;100.00;98780.28;4933693;29;20051;-78
2023/04/01 01:53:20;;;;;;;2.80;0.38;;;;;;;8.74;100.00;98778.53;4938306;29;20039;-78
2023/04/01 01:55:47;;;;;;;0.40;0.20;;;;;;;8.74;100.00;98775.06;4920453;29;20393;-79
2023/04/01 01:58:26;;;;;;;1.63;0.47;;;;;;;8.75;100.00;98772.41;4940630;29;20102;-79
2023/04/01 02:01:03;;;;;;;1.33;0.52;;;;;;;8.76;100.00;98784.56;4936249;29;20082;-79
2023/04/01 02:03:36;;;;;;;2.17;0.28;;;;;;;8.78;100.00;98779.28;4943085;29;20059;-78
2023/04/01 02:06:06;;;;;;;1.63;0.40;;;;;;;8.79;100.00;98781.00;4935647;29;20114;-79
2023/04/01 02:08:48;;;;;;;2.60;0.30;;;;;;;8.80;100.00;98780.09;4937483;29;20143;-79
2023/04/01 02:11:18;;;;;;;2.45;0.32;;;;;;;8.80;100.00;98776.63;4956732;28;20137;-85
2023/04/01 02:14:01;;;;;;;1.00;0.43;;;;;;;8.80;100.00;98782.72;4947129;29;20059;-84
2023/04/01 02:16:41;;;;;;;0.20;0.20;;;;;;;8.82;100.00;98785.25;4937472;29;20062;-77
2023/04/01 02:19:08;;;;;;;3.10;0.63;;;;;;;8.82;100.00;98778.28;4938978;29;20051;-83
2023/04/01 02:21:36;;;;;;;2.38;0.40;;;;;;;8.82;100.00;98777.44;4954428;28;20106;-77
2023/04/01 02:24:11;;;;;;;2.25;0.70;;;;;;;8.81;100.00;98789.59;4932642;29;20051;-78
2023/04/01 02:26:37;;;;;;;0.75;0.30;;;;;;;8.81;100.00;98780.94;4954582;28;20104;-79
2023/04/01 02:29:07;;;;;;;0.68;0.40;;;;;;;8.80;100.00;98785.31;4940925;29;20046;-78
2023/04/01 02:31:35;;;;;;;0.70;0.40;;;;;;;8.83;100.00;98785.22;4951335;28;20051;-80
2023/04/01 02:34:04;;;;;;;1.90;0.30;;;;;;;8.84;100.00;98781.69;4942464;29;20043;-78
2023/04/01 02:36:31;;;;;;;0.77;0.20;;;;;;;8.86;100.00;98784.25;4945504;29;20055;-76
2023/04/01 02:39:02;;;;;;;1.13;0.28;;;;;;;8.87;100.00;98785.97;4940558;29;20506;-78
2023/04/01 02:41:29;;;;;;;1.92;0.50;;;;;;;8.89;100.00;98795.47;4924348;29;20159;-82
2023/04/01 02:43:57;;;;;;;1.77;0.30;;;;;;;8.88;100.00;98790.28;4936949;29;20058;-80
2023/04/01 02:46:23;;;;;;;0.90;0.28;;;;;;;8.90;100.00;98780.63;4945014;29;20082;-78
2023/04/01 02:48:50;;;;;;;1.48;0.22;;;;;;;8.89;100.00;98785.03;4932393;29;20047;-79
2023/04/01 02:51:16;;;;;;;0.75;0.20;;;;;;;8.91;100.00;98788.41;4921119;29;20374;-90
2023/04/01 02:53:43;;;;;;;1.58;0.10;;;;;;;8.93;100.00;98793.63;4940120;29;20057;-78
2023/04/01 02:56:10;;;;;;;1.00;0.30;;;;;;;8.94;100.00;98792.69;4940870;29;20368;-78
2023/04/01 02:58:36;;;;;;;0.82;0.20;;;;;;;8.93;100.00;98791.84;4941829;29;20035;-78
2023/04/01 03:01:03;;;;;;;2.42;0.10;;;;;;;8.93;100.00;98797.06;4956308;29;20047;-78
2023/04/01 03:03:29;;;;;;;1.48;0.30;;;;;;;8.91;100.00;98793.63;4957025;29;20047;-78
2023/04/01 03:05:58;;;;;;;0.10;0.10;;;;;;;8.89;100.00;98792.84;4956397;29;20047;-78
2023/04/01 03:08:25;;;;;;;1.55;0.20;;;;;;;8.87;100.00;98792.03;4940811;29;20571;-79
2023/04/01 03:10:51;;;;;;;2.60;0.50;;;;;;;8.85;100.00;98796.47;4943726;29;20046;-79
2023/04/01 03:13:18;;;;;;;2.53;0.30;;;;;;;8.83;100.00;98792.19;4932502;29;20044;-79
2023/04/01 03:15:44;;;;;;;0.70;0.10;;;;;;;8.82;100.00;98790.47;4942584;29;20043;-79
2023/04/01 03:18:10;;;;;;;1.00;0.32;;;;;;;8.80;100.00;98795.75;4940510;29;20054;-78
2023/04/01 03:20:37;;;;;;;0.98;0.22;;;;;;;8.78;100.00;98795.78;4948034;28;20110;-79
2023/04/01 03:23:03;;;;;;;1.83;0.28;;;;;;;8.77;100.00;98795.81;4955408;28;20110;-79
2023/04/01 03:25:30;;;;;;;1.80;0.40;;;;;;;8.74;100.00;98794.16;4924432;29;20059;-79
2023/04/01 03:27:59;;;;;;;1.00;0.20;;;;;;;8.74;100.00;98799.38;4942440;29;20068;-79
2023/04/01 03:30:26;;;;;;;0.93;0.30;;;;;;;8.74;100.00;98799.38;4952775;29;20091;-81
2023/04/01 03:32:53;;;;;;;0.52;0.40;;;;;;;8.72;100.00;98798.59;4938533;29;20055;-80
2023/04/01 03:35:20;;;;;;;0.75;0.25;;;;;;;8.72;100.00;98800.34;4942089;29;20054;-78
2023/04/01 03:37:46;;;;;;;1.15;0.32;;;;;;;8.69;100.00;98797.84;4946333;28;20035;-78
2023/04/01 03:40:13;;;;;;;1.60;0.10;;;;;;;8.66;100.00;98804.00;4931103;29;20044;-79
2023/04/01 03:42:39;;;;;;;1.27;0.30;;;;;;;8.65;100.00;98802.28;4934038;28;20058;-80
2023/04/01 03:45:06;;;;;;;0.20;0.20;;;;;;;8.63;100.00;98798.88;4945222;29;20100;-81
2023/04/01 03:47:33;;;;;;;0.70;0.20;;;;;;;8.60;100.00;98809.41;4934230;29;20094;-81
2023/04/01 03:49:59;;;;;;;0.38;0.20;;;;;;;8.57;100.00;98804.28;4919588;28;20047;-79
2023/04/01 03:52:26;;;;;;;1.27;0.55;;;;;;;8.56;100.00;98811.25;4945728;28;20055;-78
2023/04/01 03:54:52;;;;;;;0.98;0.40;;;;;;;8.53;100.00;98813.09;4938447;29;20127;-84
2023/04/01 03:57:19;;;;;;;0.75;0.30;;;;;;;8.49;100.00;98812.34;4938280;29;20054;-78
2023/04/01 03:59:45;;;;;;;3.13;0.28;;;;;;;8.48;100.00;98804.56;4954282;28;20043;-79
2023/04/01 04:02:12;;;;;;;1.95;0.77;;;;;;;8.47;100.00;98811.53;4942781;28;20043;-78
2023/04/01 04:04:38;;;;;;;0.75;0.30;;;;;;;8.47;100.00;98810.69;4944156;28;20058;-78
2023/04/01 04:07:07;;;;;;;0.38;0.30;;;;;;;8.47;100.00;98810.69;4922020;29;20047;-78
2023/04/01 04:09:34;;;;;;;2.85;0.98;;;;;;;8.44;100.00;98808.97;4953210;28;20047;-80
2023/04/01 04:12:01;;;;;;;0.90;0.32;;;;;;;8.41;100.00;98815.13;4943396;29;20047;-78
2023/04/01 04:14:28;;;;;;;0.95;0.30;;;;;;;8.39;100.00;98818.69;4931836;29;20104;-78
2023/04/01 04:16:54;;;;;;;1.52;0.82;;;;;;;8.35;100.00;98820.53;4938234;29;20043;-80
2023/04/01 04:21:54;;;;;;;5.18;0.47;;;;;;;8.25;100.00;98819.97;4954007;29;20066;-79
2023/04/01 04:24:20;;;;;;;1.55;0.45;;;;;;;8.22;100.00;98816.56;4939366;29;20046;-79
2023/04/01 04:26:47;;;;;;;3.30;0.65;;;;;;;8.20;100.00;98827.06;4923015;29;20051;-78
2023/04/01 04:29:14;;;;;;;0.90;0.43;;;;;;;8.19;100.00;98814.06;4954893;29;20051;-81
2023/04/01 04:31:40;;;;;;;0.38;0.38;;;;;;;8.18;100.00;98825.41;4953343;29;20129;-78
2023/04/01 04:34:07;;;;;;;4.07;0.77;;;;;;;8.16;100.00;98828.06;4931516;29;20048;-83
2023/04/01 04:36:33;;;;;;;4.13;1.85;;;;;;;8.14;100.00;98823.78;4933256;29;20040;-78
2023/04/01 04:39:01;;;;;;;0.45;0.45;;;;;;;8.11;100.00;98819.50;4937560;29;20051;-81
2023/04/01 04:41:46;;;;;;;3.40;0.63;;;;;;;8.09;100.00;98834.31;4954491;29;20051;-79
2023/04/01 04:44:13;;;;;;;1.27;0.30;;;;;;;8.08;100.00;98835.22;4949291;29;20059;-79
2023/04/01 04:46:40;;;;;;;1.40;0.25;;;;;;;8.06;100.00;98832.66;4939735;29;20080;-82
2023/04/01 04:49:07;;;;;;;2.70;0.20;;;;;;;8.04;100.00;98837.03;4944270;29;20086;-80
2023/04/01 04:51:35;;;;;;;0.55;0.40;;;;;;;8.00;100.00;98831.97;4923046;29;20066;-78
2023/04/01 04:54:03;;;;;;;1.25;0.40;;;;;;;7.94;100.00;98840.81;4930860;29;20049;-79
2023/04/01 04:56:30;;;;;;;2.28;0.60;;;;;;;7.89;100.00;98838.34;4935086;29;20103;-78
2023/04/01 04:58:57;;;;;;;1.02;0.50;;;;;;;7.84;100.00;98836.75;4942435;29;20053;-81
2023/04/01 05:01:24;;;;;;;1.13;0.50;;;;;;;7.84;100.00;98840.19;4938569;29;20043;-78
2023/04/01 05:03:51;;;;;;;1.85;0.63;;;;;;;7.84;100.00;98841.97;4953222;29;20047;-79
2023/04/01 05:06:19;;;;;;;2.42;0.50;;;;;;;7.84;100.00;98841.97;4936034;29;20044;-79
2023/04/01 05:08:46;;;;;;;0.57;0.28;;;;;;;7.83;100.00;98837.66;4936072;29;20119;-78
2023/04/01 05:11:19;;;;;;;0.75;0.50;;;;;;;7.81;100.00;98840.28;4937493;29;20126;-77
2023/04/01 05:13:46;;;;;;;0.80;0.60;;;;;;;7.81;100.00;98848.09;4949590;29;20094;-79
2023/04/01 05:16:17;;;;;;;2.38;0.52;;;;;;;7.84;100.00;98844.56;4936752;29;20153;-80
2023/04/01 05:18:44;;;;;;;0.75;0.40;;;;;;;7.84;100.00;98845.41;4936880;29;20047;-78
2023/04/01 05:21:12;;;;;;;1.30;0.47;;;;;;;7.86;100.00;98841.03;4950354;28;20087;-80
2023/04/01 05:23:39;;;;;;;2.83;1.02;;;;;;;7.91;100.00;98846.97;4919467;29;20039;-82
2023/04/01 05:26:08;;;;;;;4.85;0.80;;;;;;;7.94;100.00;98848.63;4935612;29;20403;-83
2023/04/01 05:28:35;;;;;;;0.70;0.60;;;;;;;7.98;100.00;98852.88;4918562;29;20505;-86
2023/04/01 05:31:03;;;;;;;1.08;0.47;;;;;;;7.99;100.00;98848.50;4927037;29;20498;-81
2023/04/01 05:33:37;;;;;;;2.88;1.00;;;;;;;7.99;100.00;98857.19;4915371;29;20043;-79
2023/04/01 05:36:11;;;;;;;;;;;;;;;8.01;100.00;98851.94;4932385;29;20076;-79
2023/04/01 05:38:38;;;;;;;3.13;1.58;;;;;;;8.05;100.00;98856.16;4948078;28;20305;-85
2023/04/01 05:41:05;;;;;;;1.85;0.50;;;;;;;8.07;100.00;98846.53;4918777;29;20060;-79
2023/04/01 05:43:31;;;;;;;1.75;0.50;;;;;;;8.12;100.00;98855.06;4941312;28;20043;-78
2023/04/01 05:45:59;;;;;;;4.80;0.70;;;;;;;8.14;100.00;98848.06;4931590;29;20043;-79
2023/04/01 05:48:25;;;;;;;1.60;0.60;;;;;;;8.21;100.00;98859.19;4910077;29;20134;-79
2023/04/01 05:50:52;;;;;;;1.00;0.73;;;;;;;8.24;100.00;98862.56;4932972;29;20044;-79
2023/04/01 05:53:19;;;;;;;2.15;0.60;;;;;;;8.30;100.00;98865.91;4933187;29;20123;-78
2023/04/01 05:55:45;;;;;;;2.45;0.68;;;;;;;8.35;100.00;98861.41;4914035;29;20162;-81
2023/04/01 05:58:14;;;;;;;1.63;0.60;;;;;;;8.40;100.00;98865.56;4918657;29;20048;-79
2023/04/01 06:00:41;;;;;;;1.45;0.50;;;;;;;8.45;100.00;98865.47;4919506;29;20143;-78
2023/04/01 06:03:07;;;;;;;3.38;1.23;;;;;;;8.50;100.00;98858.38;4917652;29;20506;-78
2023/04/01 06:05:42;;;;;;;0.80;0.80;;;;;;;8.55;100.00;98860.84;4901430;29;20043;-79
2023/04/01 06:08:18;;;;;;;3.20;0.90;;;;;;;8.59;100.00;98862.47;4916802;29;20107;-79
2023/04/01 06:11:19;;;;;;;1.40;0.68;;;;;;;8.69;100.00;98870.88;4902156;29;20048;-79
2023/04/01 06:14:11;;;;;;;2.85;0.50;;;;;;;8.74;100.00;98875.03;4902426;29;20052;-78
2023/04/01 06:17:14;;;;;;;2.53;0.70;;;;;;;8.76;100.00;98870.66;4906226;29;20051;-78
2023/04/01 06:20:04;;;;;;;3.00;0.80;;;;;;;8.85;100.00;98879.09;4918329;29;20151;-86
2023/04/01 06:23:01;;;;;;;13.25;6.60;;;;;;;8.90;100.00;98878.06;4930487;29;20043;-78
2023/04/01 06:25:39;;;;;;;8.15;4.25;;;;;;;8.94;100.00;98874.44;4917295;29;20040;-80
2023/04/01 06:28:39;;;;;;;0.95;0.73;;;;;;;9.04;100.00;98882.84;4932455;29;20044;-83
2023/04/01 06:31:47;;;;;;;4.03;1.08;;;;;;;9.09;100.00;98890.53;4917818;29;20048;-84
2023/04/01 06:34:49;;;;;;;1.10;1.08;;;;;;;9.14;100.00;98877.31;4920802;29;20400;-77
2023/04/01 06:37:32;;;;;;;2.80;0.93;;;;;;;9.18;100.00;98892.00;4903650;29;20147;-78
2023/04/01 06:40:30;;;;;;;2.40;0.73;;;;;;;9.24;100.00;98894.41;4934760;29;20047;-78
2023/04/01 06:43:09;;;;;;;1.33;0.63;;;;;;;9.23;100.00;98893.56;4925770;29;20443;-79
2023/04/01 06:46:20;;;;;;;1.38;0.60;;;;;;;9.21;100.00;98897.13;4931023;29;20368;-80
2023/04/01 06:49:21;;;;;;;1.85;0.85;;;;;;;9.23;100.00;98897.91;4934451;29;20075;-78
2023/04/01 06:52:34;;;;;;;0.65;0.65;;;;;;;9.28;100.00;98896.00;4946381;29;20513;-80
2023/04/01 06:55:26;;;;;;;1.73;0.50;;;;;;;9.36;100.00;98899.25;4906149;29;20081;-77
2023/04/01 06:58:22;;;;;;;1.00;1.00;;;;;;;9.47;100.00;98901.50;4941039;29;20065;-79
2023/04/01 07:01:09;;;;;;;3.30;0.88;;;;;;;9.52;100.00;98901.38;4950762;29;20059;-78
2023/04/01 07:03:58;;;;;;;1.55;0.75;;;;;;;9.57;100.00;98905.53;4922662;29;20556;-80
2023/04/01 07:06:40;;;;;;;2.05;0.77;;;;;;;9.61;100.00;98906.28;4909819;29;20058;-79
2023/04/01 07:09:19;;;;;;;2.53;0.93;;;;;;;9.59;100.00;98908.97;4957137;28;20152;-80
2023/04/01 07:11:46;;;;;;;2.30;0.95;;;;;;;9.60;100.00;98910.63;4937309;29;20375;-78
2023/04/01 07:14:26;;;;;;;2.25;1.63;;;;;;;9.69;100.00;98909.50;4926947;29;20044;-83
2023/04/01 07:17:07;;;;;;;0.43;0.30;;;;;;;9.70;100.00;98919.03;4928041;29;20094;-78
2023/04/01 07:22:28;;;;;;;;;;;;;;;9.76;100.00;98918.84;4975117;28;20142;-79
2023/04/01 07:24:57;;;;;;;1.05;0.90;;;;;;;9.73;100.00;98926.75;4956438;28;19922;-79
2023/04/01 07:27:24;;;;;;;2.75;2.30;;;;;;;9.69;100.00;98922.56;4975311;28;20441;-82
2023/04/01 07:29:51;;;;;;;1.80;0.77;;;;;;;9.69;100.00;98930.38;4959323;28;20406;-78
2023/04/01 07:32:34;;;;;;;1.48;0.70;;;;;;;9.67;100.00;98932.19;4959557;28;20098;-79
2023/04/01 07:35:47;;;;;;;2.50;1.15;;;;;;;9.69;100.00;98930.38;4974864;28;20054;-79
2023/04/01 07:38:49;;;;;;;1.83;1.02;;;;;;;9.77;100.00;98933.59;4950328;28;20506;-83
2023/04/01 07:41:33;;;;;;;3.20;0.90;;;;;;;9.92;100.00;98945.31;4941422;28;20458;-80
2023/04/01 07:44:23;;;;;;;1.45;1.00;;;;;;;9.99;100.00;98942.50;4954251;28;20561;-77
2023/04/01 07:47:31;;;;;;;6.10;2.40;;;;;;;10.13;100.00;98942.88;4942227;28;20057;-78
2023/04/01 07:50:14;;;;;;;1.08;0.70;;;;;;;10.25;100.00;98950.28;4933032;29;20065;-77
2023/04/01 07:53:14;;;;;;;0.82;0.70;;;;;;;10.39;100.00;98947.22;4937523;28;20049;-78
2023/04/01 07:55:51;;;;;;;1.85;0.80;;;;;;;10.50;100.00;98952.06;4976587;28;20142;-79
2023/04/01 07:58:49;;;;;;;0.85;0.60;;;;;;;10.68;100.00;98952.31;4959230;28;20038;-79
2023/04/01 08:01:52;;;;;;;2.40;0.60;;;;;;;11.00;100.00;98958.97;4957390;28;20486;-78
2023/04/01 08:05:00;;;;;;;2.15;1.33;;;;;;;11.37;100.00;98954.91;4949550;28;20050;-79
2023/04/01 08:07:46;;;;;;;1.25;0.82;;;;;;;11.71;100.00;98957.94;4942264;28;20059;-79
2023/04/01 08:10:26;;;;;;;2.47;0.90;;;;;;;12.11;100.00;98961.56;4965682;28;20073;-80
2023/04/01 08:13:38;;;;;;;1.10;0.47;;;;;;;12.98;100.00;98960.38;4955431;29;20046;-78
2023/04/01 08:16:36;;;;;;;1.40;0.40;;;;;;;14.21;94.63;98964.97;4959270;28;20053;-79
2023/04/01 08:19:32;;;;;;;0.73;0.50;;;;;;;14.72;90.67;98970.25;4957430;28;20492;-79
2023/04/01 08:22:10;;;;;;;0.98;0.32;;;;;;;15.05;89.23;98969.38;4935738;29;20130;-79
2023/04/01 08:24:46;;;;;;;1.52;0.45;;;;;;;15.16;87.88;98974.06;4934950;29;20386;-78
2023/04/01 08:27:23;;;;;;;2.55;0.52;;;;;;;14.61;86.05;98972.56;4948000;29;20066;-81
2023/04/01 08:30:07;;;;;;;2.53;0.70;;;;;;;14.33;89.66;98973.19;4940872;29;20098;-80
2023/04/01 08:32:38;;;;;;;0.82;0.32;;;;;;;14.26;88.59;98977.88;4954213;29;20047;-81
2023/04/01 08:35:32;;;;;;;0.60;0.22;;;;;;;14.00;86.43;98984.47;4935662;29;20046;-80
2023/04/01 08:38:08;;;;;;;0.80;0.20;;;;;;;13.92;86.90;98984.00;4936719;29;20494;-85
2023/04/01 08:40:57;;;;;;;0.30;0.20;;;;;;;13.84;88.04;98972.06;4937212;29;20047;-79
2023/04/01 08:43:40;;;;;;;2.63;1.00;;;;;;;13.86;89.42;98979.91;4935302;29;20506;-79
2023/04/01 08:46:23;;;;;;;0.55;0.20;;;;;;;13.70;88.21;98987.66;4920367;29;20398;-82
2023/04/01 08:49:09;;;;;;;;;;;;;;;13.15;88.48;98986.69;4936262;29;20138;-80
2023/04/01 08:51:55;;;;;;;0.25;0.22;;;;;;;13.02;90.64;98989.06;4933217;29;19927;-80
2023/04/01 08:54:46;;;;;;;0.43;0.20;;;;;;;12.96;90.42;98999.84;4956954;29;20050;-80
2023/04/01 08:57:56;;;;;;;3.50;0.25;;;;;;;12.82;88.55;98991.75;4942706;29;20074;-79
2023/04/01 09:00:32;;;;;;;0.30;0.30;;;;;;;12.57;89.92;99000.69;4945729;29;20398;-82
2023/04/01 09:03:37;;;;;;;0.05;0.05;;;;;;;12.51;89.78;98995.72;4939236;29;20135;-78
2023/04/01 09:06:48;;;;;;;0.03;0.00;;;;;;;12.50;88.64;99002.75;4939469;29;20082;-79
2023/04/01 09:09:55;;;;;;;0.50;0.20;;;;;;;12.22;89.71;99005.69;4934321;29;20430;-79
2023/04/01 09:13:00;;;;;;;0.55;0.25;;;;;;;12.26;91.29;98995.94;4933862;29;20043;-79
2023/04/01 09:15:48;;;;;;;0.20;0.20;;;;;;;12.24;91.07;99009.97;4936356;29;20050;-79
2023/04/01 09:18:42;;;;;;;0.38;0.20;;;;;;;12.29;91.04;99006.28;4937265;29;20051;-79
2023/04/01 09:21:50;;;;;;;1.13;0.38;;;;;;;12.54;90.19;99006.06;4938288;29;20123;-78
2023/04/01 09:24:57;;;;;;;0.90;0.50;;;;;;;12.70;89.39;99008.91;4935665;29;20123;-79
2023/04/01 09:27:29;;;;;;;1.15;0.35;;;;;;;12.89;88.30;99007.16;4939013;29;20035;-79
2023/04/01 09:30:32;;;;;;;0.13;0.10;;;;;;;12.94;88.40;99008.72;4919783;29;20040;-79
2023/04/01 09:33:44;;;;;;;1.30;0.50;;;;;;;13.13;86.76;99021.84;4919845;29;20042;-79
2023/04/01 09:36:55;;;;;;;0.82;0.10;;;;;;;13.16;87.23;99022.56;4952692;29;20307;-78
2023/04/01 09:39:27;;;;;;;1.50;0.20;;;;;;;13.33;86.60;99024.41;4955106;29;20046;-80
2023/04/01 09:42:31;;;;;;;0.88;0.20;;;;;;;13.45;85.78;99030.06;4956637;28;20043;-78
2023/04/01 09:45:02;;;;;;;0.52;0.20;;;;;;;13.62;84.94;99030.09;4934877;29;20052;-81
2023/04/01 09:48:01;;;;;;;3.35;0.40;;;;;;;13.25;85.11;99034.44;4938135;29;20043;-80
2023/04/01 09:50:53;;;;;;;0.65;0.30;;;;;;;13.04;86.51;99033.66;4937670;29;20039;-80
2023/04/01 09:53:47;;;;;;;0.47;0.13;;;;;;;12.70;86.33;99033.38;4935353;29;20051;-80
2023/04/01 09:56:54;;;;;;;1.55;0.25;;;;;;;12.39;88.95;99045.19;4937383;29;20051;-79
2023/04/01 10:00:09;;;;;;;1.20;0.20;;;;;;;12.56;89.15;99041.81;4952875;29;20466;-79
2023/04/01 10:03:39;;;;;;;2.30;1.33;;;;;;;12.81;87.79;99046.00;4948689;29;20044;-79
2023/04/01 10:06:45;;;;;;;0.52;0.10;;;;;;;12.92;88.09;99048.19;4929746;29;20057;-79
2023/04/01 10:09:37;;;;;;;0.10;0.10;;;;;;;13.05;87.02;99054.59;4921233;29;20119;-80
2023/04/01 10:12:45;;;;;;;0.82;0.20;;;;;;;12.99;87.45;99056.63;4938787;29;20052;-79
2023/04/01 10:15:44;;;;;;;0.30;0.20;;;;;;;12.87;87.94;99052.78;4953427;29;20059;-79
2023/04/01 10:19:10;;;;;;;0.88;0.20;;;;;;;12.65;88.52;99066.00;4955198;29;20098;-78
2023/04/01 10:21:58;;;;;;;0.15;0.10;;;;;;;12.79;88.73;99075.88;4931814;29;20123;-81
2023/04/01 10:24:47;;;;;;;0.57;0.20;;;;;;;12.94;88.58;99063.88;4935219;29;20094;-82
2023/04/01 10:27:42;;;;;;;0.47;0.00;;;;;;;13.02;87.71;99067.00;4950466;29;20107;-80
2023/04/01 10:31:01;;;;;;;1.10;0.10;;;;;;;13.06;86.46;99066.81;4947086;29;20626;-79
2023/04/01 10:34:21;;;;;;;1.67;0.15;;;;;;;13.26;86.01;99072.06;4935604;29;20047;-83
2023/04/01 10:37:37;;;;;;;0.65;0.20;;;;;;;13.32;85.65;99064.75;4953336;29;20047;-78
2023/04/01 10:40:32;;;;;;;0.40;0.10;;;;;;;13.48;85.63;99069.34;4938096;29;20043;-79
2023/04/01 10:43:50;;;;;;;3.33;0.30;;;;;;;13.75;83.96;99071.59;4955586;29;20031;-81
2023/04/01 10:46:45;;;;;;;2.20;0.15;;;;;;;13.69;83.58;99073.59;4938409;29;20051;-80
2023/04/01 10:49:48;;;;;;;1.00;0.40;;;;;;;13.60;84.48;99073.16;4955776;29;20050;-81
2023/04/01 10:52:41;;;;;;;0.82;0.20;;;;;;;13.48;85.15;99080.72;4955577;29;20051;-80
2023/04/01 10:55:51;;;;;;;0.68;0.25;;;;;;;13.47;85.24;99072.91;4950963;28;20050;-80
2023/04/01 10:59:05;;;;;;;0.20;0.10;;;;;;;13.53;86.11;99072.59;4955102;29;20039;-81
2023/04/01 11:02:19;;;;;;;0.68;0.30;;;;;;;13.21;84.29;99080.19;4911476;29;20044;-79
2023/04/01 11:05:24;;;;;;;0.20;0.20;;;;;;;13.03;85.91;99084.47;4939292;29;20445;-79
2023/04/01 11:08:27;;;;;;;0.52;0.20;;;;;;;12.89;86.40;99088.56;4938849;29;20074;-80
2023/04/01 11:11:40;;;;;;;1.75;0.60;;;;;;;12.94;87.27;99090.97;4952094;29;20063;-80
2023/04/01 11:15:02;;;;;;;0.40;0.38;;;;;;;12.79;87.63;99097.75;4951763;28;20043;-80
2023/04/01 11:18:09;;;;;;;1.08;0.20;;;;;;;12.57;88.21;99100.44;4938900;29;20058;-80
2023/04/01 11:21:04;;;;;;;0.20;0.20;;;;;;;12.47;88.47;99107.84;4992132;23;20124;-81
2023/04/01 11:23:59;;;;;;;0.77;0.30;;;;;;;12.45;89.60;99108.81;4935904;28;20141;-82
2023/04/01 11:26:40;;;;;;;0.70;0.20;;;;;;;12.57;89.76;99109.16;4956013;29;20549;-86
2023/04/01 11:29:52;;;;;;;0.65;0.10;;;;;;;12.66;88.75;99110.56;4952878;29;20446;-82
2023/04/01 11:33:06;;;;;;;1.88;0.30;;;;;;;12.55;89.10;99110.16;4923095;29;20114;-80
2023/04/01 11:36:10;;;;;;;0.47;0.22;;;;;;;12.59;88.76;99109.09;4931695;29;20039;-80
2023/04/01 11:39:00;;;;;;;0.88;0.10;;;;;;;12.54;88.68;99127.69;4943254;29;20494;-79
2023/04/01 11:41:53;;;;;;;0.32;0.20;;;;;;;12.53;89.87;99125.97;4933270;29;20047;-80
2023/04/01 11:44:30;;;;;;;0.85;0.20;;;;;;;12.72;88.99;99117.31;4923587;29;20043;-80
2023/04/01 11:47:32;;;;;;;0.52;0.20;;;;;;;13.02;88.14;99124.78;4938927;29;20047;-81
2023/04/01 11:50:16;;;;;;;1.00;0.20;;;;;;;13.04;87.25;99123.81;4950938;29;20043;-83
2023/04/01 11:53:01;;;;;;;0.35;0.30;;;;;;;13.20;86.83;99126.59;4938271;29;20052;-82
2023/04/01 11:55:59;;;;;;;0.10;0.10;;;;;;;13.50;86.45;99127.97;4932995;29;20036;-80
2023/04/01 11:59:08;;;;;;;0.20;0.10;;;;;;;13.78;83.40;99130.19;4932996;29;20119;-80
2023/04/01 12:01:41;;;;;;;0.40;0.10;;;;;;;14.16;82.75;99134.56;4937030;29;20110;-84
2023/04/01 12:04:54;;;;;;;0.98;0.30;;;;;;;14.87;78.84;99133.69;4951313;29;20054;-80
2023/04/01 12:07:52;;;;;;;0.20;0.20;;;;;;;15.49;76.14;99131.34;4930749;29;20039;-86
2023/04/01 12:10:40;;;;;;;0.68;0.10;;;;;;;15.69;76.30;99135.53;4933907;29;21470;-82
2023/04/01 12:13:45;;;;;;;0.10;0.10;;;;;;;15.66;75.33;99140.16;4931804;29;20047;-86
2023/04/01 12:16:39;;;;;;;0.10;0.10;;;;;;;15.23;74.60;99153.81;4938050;29;20063;-83
2023/04/01 12:19:21;;;;;;;0.63;0.20;;;;;;;14.97;76.47;99145.47;4934666;29;20133;-90
2023/04/01 12:22:29;;;;;;;1.05;0.10;;;;;;;14.62;77.54;99148.09;4930830;29;20071;-87
2023/04/01 12:25:15;;;;;;;0.73;0.13;;;;;;;14.10;80.42;99153.25;4901792;29;20076;-79
2023/04/01 12:28:26;;;;;;;0.95;0.40;;;;;;;13.70;81.79;99154.22;4931689;29;20055;-83
2023/04/01 12:31:18;;;;;;;0.10;0.10;;;;;;;13.55;82.75;99160.16;4914942;29;20040;-81
2023/04/01 12:34:15;;;;;;;0.17;0.17;;;;;;;13.44;83.68;99171.16;4932120;29;20504;-79
2023/04/01 12:37:18;;;;;;;1.27;0.20;;;;;;;13.40;84.53;99169.56;4915486;29;20360;-79
2023/04/01 12:40:10;;;;;;;2.65;0.25;;;;;;;13.43;83.78;99168.59;4913829;29;20032;-80
2023/04/01 12:43:29;;;;;;;0.20;0.20;;;;;;;13.61;82.87;99166.91;4913883;29;20052;-82
2023/04/01 12:46:26;;;;;;;0.10;0.10;;;;;;;13.64;82.38;99172.88;4914536;29;20047;-79
2023/04/01 12:49:47;;;;;;;0.50;0.10;;;;;;;13.81;81.48;99172.13;4916371;29;20052;-80
2023/04/01 12:52:33;;;;;;;1.00;0.25;;;;;;;14.00;81.59;99176.50;4928794;29;20056;-80